Time;durP1;ratioP1;P1;durP2;ratioP2;P2;SDS_P1;SDS_P2;PMS_P1;PMS_P2;Temp;Humidity;BMP_temperature;BMP_pressure;BME280_temperature;BME280_humidity;BME280_pressure;Samples;Min_cycle;Max_cycle;Signal;HPM_P1;HPM_P2
2021/03/23 00:01:07;;;;;;;15.68;10.45;;;7.40;85.30;;;;;;5059839;28;20033;-85
2021/03/23 00:03:36;;;;;;;18.85;11.50;;;7.40;85.30;;;;;;5068889;28;20036;-84
2021/03/23 00:06:04;;;;;;;14.13;9.07;;;7.40;85.30;;;;;;5056494;28;20036;-85
2021/03/23 00:08:32;;;;;;;10.70;6.93;;;7.40;85.30;;;;;;5058638;28;20048;-85
2021/03/23 00:11:02;;;;;;;10.05;7.45;;;7.40;85.30;;;;;;5077783;28;20051;-85
2021/03/23 00:13:29;;;;;;;9.50;6.57;;;7.40;85.30;;;;;;5058177;28;20519;-84
2021/03/23 00:15:56;;;;;;;9.93;6.10;;;7.40;85.30;;;;;;5068509;28;20064;-78
2021/03/23 00:18:22;;;;;;;10.40;6.00;;;7.40;85.40;;;;;;5060169;28;20040;-84
2021/03/23 00:20:49;;;;;;;8.95;6.47;;;7.40;85.30;;;;;;5068457;28;20040;-78
2021/03/23 00:23:16;;;;;;;9.13;6.65;;;7.40;85.30;;;;;;5063666;28;20044;-78
2021/03/23 00:25:43;;;;;;;7.80;5.95;;;7.40;85.30;;;;;;5061387;28;20028;-78
2021/03/23 00:28:10;;;;;;;8.88;6.88;;;7.40;85.80;;;;;;5064331;28;20043;-78
2021/03/23 00:30:37;;;;;;;7.70;5.67;;;7.40;85.30;;;;;;5052303;28;20047;-78
2021/03/23 00:33:04;;;;;;;9.60;6.40;;;7.40;85.40;;;;;;5046047;28;20032;-78
2021/03/23 00:35:31;;;;;;;11.82;6.85;;;7.40;85.40;;;;;;5049905;28;20037;-78
2021/03/23 00:38:01;;;;;;;7.63;5.93;;;7.40;85.40;;;;;;5035657;28;20048;-78
2021/03/23 00:40:31;;;;;;;9.07;6.55;;;7.40;85.40;;;;;;5072248;28;20055;-78
2021/03/23 00:43:01;;;;;;;8.65;6.00;;;7.40;85.40;;;;;;5064048;28;20048;-78
2021/03/23 00:45:28;;;;;;;9.15;5.78;;;7.40;85.40;;;;;;5053422;28;20399;-78
2021/03/23 00:47:56;;;;;;;10.13;5.80;;;7.40;85.40;;;;;;5069519;28;20041;-78
2021/03/23 00:50:22;;;;;;;8.38;5.70;;;7.40;85.50;;;;;;5068301;28;20430;-78
2021/03/23 00:52:49;;;;;;;10.55;6.75;;;7.40;85.50;;;;;;5064231;28;20898;-78
2021/03/23 00:55:15;;;;;;;8.23;5.45;;;7.30;85.50;;;;;;5068273;28;20048;-84
2021/03/23 00:57:42;;;;;;;6.72;5.05;;;7.30;85.50;;;;;;5057640;28;20048;-85
2021/03/23 01:00:11;;;;;;;10.90;5.85;;;7.30;85.50;;;;;;5071061;28;20028;-85
2021/03/23 01:02:39;;;;;;;7.97;5.53;;;7.30;85.60;;;;;;5058843;28;20435;-85
2021/03/23 01:05:06;;;;;;;8.02;5.57;;;7.30;85.70;;;;;;5072745;28;20043;-78
2021/03/23 01:07:33;;;;;;;8.60;5.38;;;7.30;85.70;;;;;;5049568;28;20047;-78
2021/03/23 01:09:59;;;;;;;7.95;5.55;;;7.30;85.70;;;;;;5018635;28;20040;-78
2021/03/23 01:12:26;;;;;;;9.27;6.05;;;7.30;85.70;;;;;;5072930;28;20040;-78
2021/03/23 01:14:53;;;;;;;11.20;5.97;;;7.30;85.70;;;;;;5043217;28;20503;-78
2021/03/23 01:17:19;;;;;;;6.90;5.55;;;7.30;85.80;;;;;;5031760;28;20040;-78
2021/03/23 01:19:46;;;;;;;5.85;4.35;;;7.30;85.80;;;;;;5014343;28;20036;-79
2021/03/23 01:22:12;;;;;;;9.50;6.28;;;7.30;85.90;;;;;;5027456;28;20045;-78
2021/03/23 01:24:39;;;;;;;6.13;4.18;;;7.30;85.90;;;;;;5036346;28;20040;-78
2021/03/23 01:27:06;;;;;;;6.93;5.03;;;7.30;85.90;;;;;;5012449;28;20037;-78
2021/03/23 01:29:32;;;;;;;6.55;4.45;;;7.30;86.00;;;;;;5032825;28;20043;-78
2021/03/23 01:32:00;;;;;;;8.57;5.80;;;7.30;86.00;;;;;;5013001;28;20045;-78
2021/03/23 01:34:26;;;;;;;6.47;4.63;;;7.30;86.50;;;;;;5050211;28;20043;-78
2021/03/23 01:36:53;;;;;;;7.97;5.72;;;7.30;86.50;;;;;;5026685;28;20033;-78
2021/03/23 01:39:20;;;;;;;7.13;5.35;;;7.30;85.90;;;;;;5029373;28;20056;-78
2021/03/23 01:41:46;;;;;;;8.03;5.20;;;7.30;85.90;;;;;;5011849;28;20044;-78
2021/03/23 01:44:12;;;;;;;7.65;5.22;;;7.30;85.90;;;;;;5049808;28;20056;-78
2021/03/23 01:46:49;;;;;;;7.50;4.70;;;7.30;86.00;;;;;;5032145;28;20036;-78
2021/03/23 01:49:34;;;;;;;9.68;4.63;;;7.30;86.00;;;;;;5030011;28;20049;-79
2021/03/23 01:52:13;;;;;;;7.97;5.15;;;7.20;85.90;;;;;;5020107;28;20078;-78
2021/03/23 01:54:54;;;;;;;7.80;5.05;;;7.20;85.80;;;;;;5019365;28;20040;-78
2021/03/23 01:57:21;;;;;;;6.38;4.53;;;7.20;85.80;;;;;;5034500;28;20037;-78
2021/03/23 01:59:52;;;;;;;6.47;3.88;;;7.20;85.80;;;;;;5017629;28;20051;-78
2021/03/23 02:02:23;;;;;;;8.70;5.20;;;7.20;85.70;;;;;;5032633;28;20037;-78
2021/03/23 02:04:50;;;;;;;8.77;4.63;;;7.30;85.80;;;;;;5046960;28;20032;-78
2021/03/23 02:07:18;;;;;;;9.40;4.38;;;7.20;85.60;;;;;;5048297;28;20424;-79
2021/03/23 02:09:45;;;;;;;7.47;4.68;;;7.20;85.70;;;;;;5035918;28;20045;-79
2021/03/23 02:12:18;;;;;;;8.98;4.82;;;7.20;85.60;;;;;;5038936;28;20404;-78
2021/03/23 02:14:47;;;;;;;7.22;4.85;;;7.20;85.70;;;;;;5016445;28;20064;-78
2021/03/23 02:17:32;;;;;;;8.07;4.55;;;7.20;85.70;;;;;;5033198;28;20041;-79
2021/03/23 02:20:07;;;;;;;6.70;4.43;;;7.20;85.70;;;;;;5038456;28;20032;-78
2021/03/23 02:22:45;;;;;;;5.45;3.75;;;7.30;85.70;;;;;;5037642;28;20044;-78
2021/03/23 02:25:17;;;;;;;9.50;4.55;;;7.30;85.70;;;;;;5035644;28;20048;-78
2021/03/23 02:27:44;;;;;;;4.53;3.58;;;7.30;85.80;;;;;;5017536;28;20392;-78
2021/03/23 02:30:21;;;;;;;9.80;5.20;;;7.30;85.70;;;;;;5053628;28;20045;-78
2021/03/23 02:32:48;;;;;;;8.63;5.70;;;7.30;85.70;;;;;;5036720;28;20037;-79
2021/03/23 02:35:15;;;;;;;7.90;5.22;;;7.20;85.60;;;;;;5033568;28;20049;-79
2021/03/23 02:37:41;;;;;;;7.65;5.15;;;7.20;85.60;;;;;;5015744;28;20048;-78
2021/03/23 02:40:08;;;;;;;8.17;4.33;;;7.20;85.60;;;;;;5019636;28;20036;-78
2021/03/23 02:42:35;;;;;;;7.35;4.50;;;7.20;85.50;;;;;;5028067;28;20041;-78
2021/03/23 02:45:02;;;;;;;7.13;4.60;;;7.20;85.50;;;;;;5022070;28;20033;-79
2021/03/23 02:47:28;;;;;;;6.95;4.40;;;7.20;85.50;;;;;;5035657;28;20052;-78
2021/03/23 02:49:55;;;;;;;13.03;6.97;;;7.20;85.50;;;;;;5026010;28;20068;-79
2021/03/23 02:52:21;;;;;;;7.82;4.70;;;7.20;85.50;;;;;;5010797;28;20055;-78
2021/03/23 02:54:48;;;;;;;9.57;5.85;;;7.20;85.50;;;;;;5012363;28;20040;-79
2021/03/23 02:57:14;;;;;;;10.30;5.80;;;7.20;85.50;;;;;;5023098;28;20033;-79
2021/03/23 02:59:41;;;;;;;12.30;8.40;;;7.20;85.50;;;;;;5012428;28;20064;-79
2021/03/23 03:02:07;;;;;;;9.02;6.10;;;7.20;85.50;;;;;;5005718;28;20546;-79
2021/03/23 03:04:35;;;;;;;8.82;5.80;;;7.20;85.60;;;;;;5001118;28;20045;-79
2021/03/23 03:07:01;;;;;;;11.43;7.78;;;7.20;85.60;;;;;;5031303;28;20036;-79
2021/03/23 03:09:28;;;;;;;12.05;8.07;;;7.20;85.60;;;;;;5014049;28;20033;-79
2021/03/23 03:11:54;;;;;;;12.10;7.72;;;7.20;85.70;;;;;;5017405;28;20571;-79
2021/03/23 03:14:21;;;;;;;12.77;6.90;;;7.20;85.80;;;;;;5029745;28;20056;-79
2021/03/23 03:16:47;;;;;;;12.43;8.05;;;7.20;85.80;;;;;;5014438;28;20044;-78
2021/03/23 03:19:15;;;;;;;17.92;11.73;;;7.20;85.80;;;;;;5032640;28;20045;-78
2021/03/23 03:21:42;;;;;;;14.63;10.35;;;7.10;85.80;;;;;;5032386;28;20048;-78
2021/03/23 03:24:09;;;;;;;17.50;11.60;;;7.10;85.90;;;;;;5019588;28;20040;-78
2021/03/23 03:26:35;;;;;;;11.60;8.88;;;7.10;86.10;;;;;;5046034;28;20045;-79
2021/03/23 03:29:03;;;;;;;16.50;11.25;;;7.10;86.10;;;;;;4997221;28;20069;-78
2021/03/23 03:31:31;;;;;;;13.32;9.10;;;7.10;86.10;;;;;;5007729;28;20526;-79
2021/03/23 03:33:59;;;;;;;16.23;11.18;;;7.10;86.10;;;;;;5013829;28;20044;-79
2021/03/23 03:36:28;;;;;;;15.88;9.90;;;7.10;86.10;;;;;;5030594;28;20514;-78
2021/03/23 03:38:54;;;;;;;16.27;11.25;;;7.10;86.30;;;;;;5015373;28;20507;-79
2021/03/23 03:41:22;;;;;;;15.60;10.80;;;7.10;86.20;;;;;;5019495;28;20112;-78
2021/03/23 03:43:49;;;;;;;13.65;9.18;;;7.10;86.30;;;;;;5027155;28;20583;-78
2021/03/23 03:46:16;;;;;;;18.02;11.20;;;7.00;86.30;;;;;;4994696;28;20036;-79
2021/03/23 03:48:42;;;;;;;12.27;7.93;;;7.00;86.30;;;;;;5010507;28;20044;-78
2021/03/23 03:51:09;;;;;;;16.40;11.10;;;7.00;86.30;;;;;;5030765;28;20039;-78
2021/03/23 03:53:36;;;;;;;12.57;9.07;;;7.00;86.30;;;;;;5046809;28;20033;-79
2021/03/23 03:56:03;;;;;;;18.35;11.35;;;7.00;86.40;;;;;;5007854;28;20044;-79
2021/03/23 03:58:30;;;;;;;15.40;11.65;;;7.00;86.60;;;;;;5038775;28;20491;-78
2021/03/23 04:00:57;;;;;;;19.13;13.48;;;6.90;86.60;;;;;;5021841;28;20049;-78
2021/03/23 04:03:27;;;;;;;23.35;14.95;;;6.90;86.70;;;;;;5028618;28;20029;-78
2021/03/23 04:05:55;;;;;;;18.27;13.27;;;6.80;86.80;;;;;;5012188;28;20041;-78
2021/03/23 04:08:33;;;;;;;17.27;11.70;;;6.80;86.90;;;;;;5030189;28;20031;-79
2021/03/23 04:11:05;;;;;;;22.67;13.40;;;6.80;86.90;;;;;;5031900;28;20051;-79
2021/03/23 04:13:32;;;;;;;22.95;15.90;;;6.80;86.90;;;;;;5045194;28;20511;-78
2021/03/23 04:15:59;;;;;;;22.33;12.45;;;6.80;86.90;;;;;;5042839;28;20423;-78
2021/03/23 04:18:27;;;;;;;21.27;14.13;;;6.80;86.90;;;;;;5046694;28;20044;-78
2021/03/23 04:20:56;;;;;;;20.00;14.57;;;6.80;87.00;;;;;;5071963;28;20044;-78
2021/03/23 04:23:34;;;;;;;22.13;14.70;;;6.80;87.00;;;;;;5049891;28;20036;-78
2021/03/23 04:26:01;;;;;;;21.75;15.02;;;6.80;87.10;;;;;;5068251;28;20448;-78
2021/03/23 04:28:28;;;;;;;24.10;15.82;;;6.70;87.00;;;;;;5068788;28;20044;-78
2021/03/23 04:30:55;;;;;;;22.48;14.35;;;6.70;87.10;;;;;;5062862;28;20036;-78
2021/03/23 04:33:26;;;;;;;20.60;14.27;;;6.70;87.10;;;;;;5065979;28;20036;-78
2021/03/23 04:35:56;;;;;;;23.10;16.90;;;6.70;87.20;;;;;;5063399;28;20522;-78
2021/03/23 04:38:29;;;;;;;21.13;14.80;;;6.70;87.30;;;;;;5063811;28;20028;-78
2021/03/23 04:40:59;;;;;;;20.05;12.60;;;6.70;87.40;;;;;;5062787;28;20037;-78
2021/03/23 04:43:34;;;;;;;22.65;16.25;;;6.60;87.40;;;;;;5065429;28;20529;-78
2021/03/23 04:46:01;;;;;;;20.83;13.25;;;6.60;87.50;;;;;;5067194;28;20041;-78
2021/03/23 04:48:28;;;;;;;23.35;15.77;;;6.60;87.60;;;;;;5052160;28;20491;-78
2021/03/23 04:50:55;;;;;;;19.95;14.65;;;6.50;87.70;;;;;;5062748;28;20051;-78
2021/03/23 04:53:35;;;;;;;24.83;17.00;;;6.50;87.80;;;;;;5058968;28;20388;-78
2021/03/23 04:56:04;;;;;;;20.53;12.23;;;6.50;87.90;;;;;;5067340;28;20040;-78
2021/03/23 04:58:31;;;;;;;23.15;16.00;;;6.50;87.80;;;;;;5066306;28;20036;-78
2021/03/23 05:00:59;;;;;;;26.83;18.08;;;6.50;87.80;;;;;;5038359;28;20040;-78
2021/03/23 05:03:33;;;;;;;25.93;17.60;;;6.50;88.00;;;;;;5045581;28;20040;-78
2021/03/23 05:06:06;;;;;;;21.65;14.32;;;6.50;88.10;;;;;;5064353;28;20110;-78
2021/03/23 05:08:34;;;;;;;23.92;16.45;;;6.50;88.10;;;;;;5040420;28;20036;-79
2021/03/23 05:11:00;;;;;;;26.57;18.93;;;6.50;88.10;;;;;;5051923;28;20074;-78
2021/03/23 05:13:27;;;;;;;24.17;15.97;;;6.50;88.10;;;;;;5067316;28;20036;-79
2021/03/23 05:15:53;;;;;;;24.95;14.73;;;6.50;88.10;;;;;;5062679;28;20049;-79
2021/03/23 05:18:20;;;;;;;29.58;18.80;;;6.50;88.10;;;;;;5028862;28;20059;-78
2021/03/23 05:20:47;;;;;;;24.67;15.35;;;6.50;88.20;;;;;;5053684;28;20423;-81
2021/03/23 05:23:14;;;;;;;22.27;14.52;;;6.40;88.20;;;;;;5030723;28;20044;-79
2021/03/23 05:25:41;;;;;;;22.93;15.27;;;6.40;88.30;;;;;;5049973;28;20044;-78
2021/03/23 05:28:09;;;;;;;22.33;15.20;;;6.40;88.40;;;;;;5072972;28;20048;-78
2021/03/23 05:30:37;;;;;;;25.33;16.75;;;6.40;88.40;;;;;;5079535;28;20056;-77
2021/03/23 05:33:04;;;;;;;23.08;15.80;;;6.40;88.50;;;;;;5070113;28;20036;-79
2021/03/23 05:35:30;;;;;;;29.53;18.87;;;6.30;88.60;;;;;;5068955;28;20044;-79
2021/03/23 05:37:57;;;;;;;33.00;21.67;;;6.30;88.70;;;;;;5051118;28;20387;-79
2021/03/23 05:40:30;;;;;;;26.35;17.25;;;6.30;88.80;;;;;;5034882;28;20028;-80
2021/03/23 05:43:22;;;;;;;24.63;15.07;;;6.20;88.90;;;;;;5050504;28;20040;-81
2021/03/23 05:45:55;;;;;;;28.30;17.58;;;6.20;89.00;;;;;;5043857;28;20568;-78
2021/03/23 05:48:26;;;;;;;27.20;17.07;;;6.20;89.20;;;;;;5072369;28;20041;-78
2021/03/23 05:51:02;;;;;;;23.07;15.00;;;6.20;89.30;;;;;;5072047;28;20032;-77
2021/03/23 05:53:37;;;;;;;19.13;12.77;;;6.20;89.30;;;;;;5069539;28;20561;-78
2021/03/23 05:56:04;;;;;;;24.10;16.90;;;6.10;89.40;;;;;;5074006;28;20027;-77
2021/03/23 05:58:35;;;;;;;26.87;16.93;;;6.10;89.40;;;;;;5056529;28;20047;-78
2021/03/23 06:01:25;;;;;;;17.50;11.90;;;6.00;89.50;;;;;;5071615;28;20490;-77
2021/03/23 06:04:02;;;;;;;18.60;10.83;;;6.00;89.70;;;;;;5042801;28;20040;-78
2021/03/23 06:06:44;;;;;;;24.87;15.00;;;5.90;89.70;;;;;;5068802;28;20059;-78
2021/03/23 06:09:17;;;;;;;20.47;14.13;;;5.90;89.80;;;;;;5071935;28;20055;-77
2021/03/23 06:11:43;;;;;;;16.65;10.85;;;5.80;89.80;;;;;;5066910;28;20048;-77
2021/03/23 06:14:30;;;;;;;23.90;13.87;;;5.80;89.90;;;;;;5047674;28;20040;-77
2021/03/23 06:17:22;;;;;;;28.87;16.50;;;5.80;90.00;;;;;;5049817;28;20028;-77
2021/03/23 06:20:07;;;;;;;21.27;13.77;;;5.70;90.10;;;;;;5049505;28;20036;-77
2021/03/23 06:23:04;;;;;;;24.20;15.00;;;5.70;90.10;;;;;;5049699;28;20510;-77
2021/03/23 06:25:43;;;;;;;23.60;14.87;;;5.70;90.20;;;;;;5053429;28;20514;-77
2021/03/23 06:28:38;;;;;;;27.53;16.70;;;5.80;90.10;;;;;;5050873;28;20757;-77
2021/03/23 06:31:41;;;;;;;21.37;13.30;;;5.90;90.20;;;;;;5054048;28;20042;-77
2021/03/23 06:34:20;;;;;;;26.58;15.93;;;6.00;90.10;;;;;;5058664;28;20053;-77
2021/03/23 06:36:49;;;;;;;25.43;16.07;;;6.10;90.00;;;;;;5080958;28;20051;-77
2021/03/23 06:39:16;;;;;;;31.00;17.53;;;6.20;90.00;;;;;;5050539;28;20055;-77
2021/03/23 06:42:03;;;;;;;20.27;14.33;;;6.30;90.10;;;;;;5061543;28;20052;-77
2021/03/23 06:44:36;;;;;;;32.53;17.00;;;6.50;90.00;;;;;;5052368;28;20048;-77
2021/03/23 06:47:03;;;;;;;32.78;17.77;;;6.50;89.90;;;;;;5052048;28;20036;-77
2021/03/23 06:49:34;;;;;;;34.37;19.07;;;6.60;89.80;;;;;;5057948;28;20052;-78
2021/03/23 06:52:20;;;;;;;32.60;20.10;;;6.60;89.70;;;;;;5049145;28;20055;-77
2021/03/23 06:55:19;;;;;;;29.03;17.87;;;6.60;89.90;;;;;;5021275;28;20396;-77
2021/03/23 06:57:46;;;;;;;20.10;13.68;;;6.70;90.00;;;;;;5050990;28;20059;-77
2021/03/23 07:00:14;;;;;;;27.13;16.47;;;6.70;89.80;;;;;;5048398;28;20402;-77
2021/03/23 07:02:43;;;;;;;28.20;17.63;;;6.70;89.90;;;;;;5036227;28;20035;-77
2021/03/23 07:05:16;;;;;;;27.67;18.83;;;6.70;90.00;;;;;;5049497;28;20063;-77
2021/03/23 07:08:07;;;;;;;25.33;15.33;;;6.70;90.10;;;;;;5051340;28;20040;-78
2021/03/23 07:10:44;;;;;;;28.75;18.13;;;6.70;90.00;;;;;;5036788;28;20047;-78
2021/03/23 07:13:25;;;;;;;22.33;14.30;;;6.80;90.10;;;;;;5067404;28;20040;-79
2021/03/23 07:16:25;;;;;;;30.73;19.13;;;6.90;90.10;;;;;;5066111;28;20056;-77
2021/03/23 07:18:52;;;;;;;34.03;18.52;;;7.00;90.10;;;;;;5046235;28;20063;-78
2021/03/23 07:21:33;;;;;;;34.22;20.25;;;7.20;90.00;;;;;;5065008;28;20036;-77
2021/03/23 07:24:31;;;;;;;31.40;18.83;;;7.30;89.90;;;;;;5067412;28;20063;-78
2021/03/23 07:27:04;;;;;;;35.22;19.17;;;7.50;89.80;;;;;;5049289;28;20054;-78
2021/03/23 07:29:32;;;;;;;;;;;7.60;89.70;;;;;;5032965;28;20036;-78
2021/03/23 07:31:59;;;;;;;35.58;20.85;;;7.70;89.60;;;;;;5066626;28;19912;-77
2021/03/23 07:34:31;;;;;;;36.25;20.35;;;7.70;89.40;;;;;;5068978;28;20033;-78
2021/03/23 07:37:09;;;;;;;43.45;23.88;;;7.80;89.50;;;;;;5068438;28;20070;-77
2021/03/23 07:39:43;;;;;;;52.70;27.77;;;7.80;89.60;;;;;;5069166;28;20026;-78
2021/03/23 07:42:28;;;;;;;49.53;27.15;;;7.80;89.70;;;;;;5065530;28;20040;-77
2021/03/23 07:45:07;;;;;;;56.28;30.85;;;7.90;89.90;;;;;;5070004;28;20036;-78
2021/03/23 07:48:01;;;;;;;61.00;31.97;;;7.90;89.90;;;;;;5065566;28;20048;-80
2021/03/23 07:50:38;;;;;;;50.17;27.13;;;8.00;90.00;;;;;;5072321;28;20044;-79
2021/03/23 07:53:08;;;;;;;61.67;32.50;;;8.10;90.30;;;;;;5071815;28;20028;-78
2021/03/23 07:55:35;;;;;;;45.50;24.70;;;8.20;90.00;;;;;;5068786;28;20036;-78
2021/03/23 07:58:16;;;;;;;45.22;27.05;;;8.30;89.90;;;;;;5071564;28;20044;-79
2021/03/23 08:01:17;;;;;;;48.25;25.33;;;8.50;89.50;;;;;;5071662;28;20048;-79
2021/03/23 08:03:58;;;;;;;58.20;31.23;;;8.60;89.40;;;;;;5053390;28;20036;-78
2021/03/23 08:06:54;;;;;;;53.65;30.27;;;8.70;89.20;;;;;;5067354;28;20043;-78
2021/03/23 08:09:52;;;;;;;55.80;34.55;;;8.90;89.10;;;;;;5072919;28;20029;-79
2021/03/23 08:12:21;;;;;;;64.30;35.80;;;9.10;88.60;;;;;;5039340;28;20047;-80
2021/03/23 08:15:01;;;;;;;59.60;34.90;;;9.30;88.20;;;;;;5064379;28;20518;-79
2021/03/23 08:17:46;;;;;;;58.90;37.10;;;9.40;88.00;;;;;;5056332;28;20044;-80
2021/03/23 08:20:44;;;;;;;57.35;34.03;;;9.50;87.80;;;;;;5048694;28;20036;-81
2021/03/23 08:23:35;;;;;;;58.55;34.90;;;9.60;87.40;;;;;;5060344;28;20052;-81
2021/03/23 08:26:49;;;;;;;67.93;36.35;;;9.80;87.20;;;;;;5052421;28;20062;-79
2021/03/23 08:29:35;;;;;;;65.03;38.65;;;9.80;86.80;;;;;;5069368;28;20055;-82
2021/03/23 08:32:04;;;;;;;64.72;40.08;;;9.90;86.40;;;;;;5073531;28;20960;-82
2021/03/23 08:34:43;;;;;;;63.13;36.53;;;9.90;85.90;;;;;;5043715;28;20032;-82
2021/03/23 08:37:37;;;;;;;61.90;37.97;;;9.80;85.50;;;;;;5069824;28;20411;-82
2021/03/23 08:40:25;;;;;;;62.78;36.72;;;9.70;85.50;;;;;;5038900;28;20048;-82
2021/03/23 08:42:52;;;;;;;61.78;37.45;;;9.70;85.70;;;;;;5068429;28;20048;-79
2021/03/23 08:45:43;;;;;;;56.72;37.58;;;9.70;85.80;;;;;;5075002;28;20056;-80
2021/03/23 08:48:36;;;;;;;59.53;36.03;;;9.70;85.90;;;;;;5045086;28;20049;-82
2021/03/23 08:51:06;;;;;;;53.38;32.35;;;9.60;85.90;;;;;;5079979;28;20630;-82
2021/03/23 08:53:34;;;;;;;60.35;35.03;;;9.50;85.90;;;;;;5084845;28;20044;-82
2021/03/23 08:56:02;;;;;;;53.42;32.72;;;9.40;86.20;;;;;;5048545;28;20056;-82
2021/03/23 08:58:42;;;;;;;49.85;28.73;;;9.30;86.50;;;;;;5079191;28;20038;-82
2021/03/23 09:01:36;;;;;;;55.72;32.95;;;9.20;86.90;;;;;;5040008;28;20028;-79
2021/03/23 09:04:02;;;;;;;50.15;29.65;;;9.10;87.30;;;;;;5065690;28;20044;-80
2021/03/23 09:06:56;;;;;;;55.47;32.08;;;9.10;87.60;;;;;;5075097;28;20044;-80
2021/03/23 09:09:26;;;;;;;64.47;35.42;;;9.00;88.00;;;;;;5059309;28;20035;-80
2021/03/23 09:12:08;;;;;;;55.28;31.17;;;8.90;88.40;;;;;;5077499;28;20032;-80
2021/03/23 09:18:12;;;;;;;67.68;37.08;;;8.90;89.00;;;;;;5059136;28;20611;-79
2021/03/23 09:20:39;;;;;;;73.93;40.95;;;8.80;89.20;;;;;;5060532;28;20047;-79
2021/03/23 09:23:18;;;;;;;61.20;33.20;;;8.80;89.30;;;;;;5032524;28;20028;-80
2021/03/23 09:25:52;;;;;;;56.58;31.13;;;8.80;89.60;;;;;;5061929;28;20444;-81
2021/03/23 09:28:51;;;;;;;59.50;32.30;;;8.70;89.80;;;;;;5077985;28;20033;-79
2021/03/23 09:31:40;;;;;;;61.08;34.80;;;8.70;90.00;;;;;;5057406;28;20483;-81
2021/03/23 09:34:45;;;;;;;56.53;31.63;;;8.70;90.10;;;;;;5024679;28;20047;-80
2021/03/23 09:37:31;;;;;;;57.25;31.58;;;8.80;90.20;;;;;;5048449;28;20048;-78
2021/03/23 09:40:00;;;;;;;60.08;33.90;;;8.90;90.30;;;;;;5049142;28;20044;-80
2021/03/23 09:42:32;;;;;;;69.43;34.60;;;9.00;90.30;;;;;;5049794;28;20051;-80
2021/03/23 09:45:11;;;;;;;59.55;31.33;;;9.20;90.20;;;;;;5038859;28;20036;-80
2021/03/23 09:48:24;;;;;;;80.22;40.83;;;9.30;90.00;;;;;;5038456;28;20506;-81
2021/03/23 09:50:53;;;;;;;66.13;37.35;;;9.40;89.70;;;;;;5047278;28;20033;-84
2021/03/23 09:53:28;;;;;;;72.80;37.88;;;9.30;89.80;;;;;;5038371;28;20040;-84
2021/03/23 09:56:25;;;;;;;67.25;37.15;;;9.30;90.00;;;;;;5041541;28;20044;-81
2021/03/23 09:59:11;;;;;;;60.33;32.63;;;9.30;90.00;;;;;;5026535;28;20059;-80
2021/03/23 10:02:05;;;;;;;70.68;35.95;;;9.30;90.00;;;;;;5051878;28;20048;-81
2021/03/23 10:04:41;;;;;;;57.38;31.65;;;9.40;90.00;;;;;;5039596;28;20052;-81
2021/03/23 10:07:27;;;;;;;66.72;33.80;;;9.40;90.00;;;;;;5054788;28;20046;-81
2021/03/23 10:09:53;;;;;;;63.75;36.20;;;9.40;90.00;;;;;;5025871;28;20020;-81
2021/03/23 10:12:31;;;;;;;68.00;35.33;;;9.40;89.90;;;;;;5031433;28;20036;-84
2021/03/23 10:14:58;;;;;;;64.85;35.65;;;9.40;90.00;;;;;;5071771;28;20052;-79
2021/03/23 10:17:28;;;;;;;59.22;33.90;;;9.40;89.90;;;;;;5035834;28;20036;-79
2021/03/23 10:19:57;;;;;;;63.85;33.60;;;9.40;89.90;;;;;;5057044;28;20487;-80
2021/03/23 10:22:27;;;;;;;53.05;29.83;;;9.40;89.90;;;;;;5056373;28;20048;-84
2021/03/23 10:24:56;;;;;;;59.08;34.60;;;9.30;90.00;;;;;;5026942;28;20041;-84
2021/03/23 10:27:27;;;;;;;53.00;30.45;;;9.30;90.10;;;;;;5044198;28;20059;-85
2021/03/23 10:30:00;;;;;;;58.67;34.28;;;9.40;90.10;;;;;;5034026;28;20037;-79
2021/03/23 10:32:38;;;;;;;52.10;30.88;;;9.60;90.10;;;;;;5048203;28;20037;-80
2021/03/23 10:35:14;;;;;;;59.90;35.10;;;9.70;89.90;;;;;;5029653;28;20040;-79
2021/03/23 10:37:41;;;;;;;54.83;31.80;;;9.70;89.30;;;;;;5031015;28;20048;-84
2021/03/23 10:40:27;;;;;;;51.67;31.08;;;9.70;89.30;;;;;;5015949;28;20039;-85
2021/03/23 10:42:54;;;;;;;51.92;31.05;;;9.70;89.20;;;;;;5044551;28;20037;-85
2021/03/23 10:45:32;;;;;;;57.53;33.17;;;9.80;89.30;;;;;;5041961;28;20407;-84
2021/03/23 10:48:13;;;;;;;55.78;32.17;;;9.80;89.00;;;;;;5056466;28;20071;-84
2021/03/23 10:50:41;;;;;;;53.20;31.73;;;9.80;88.90;;;;;;5028690;28;20877;-84
2021/03/23 10:53:13;;;;;;;50.78;30.88;;;9.90;88.70;;;;;;5043335;28;20039;-84
2021/03/23 10:55:47;;;;;;;59.50;34.75;;;9.90;88.60;;;;;;5054330;28;20051;-84
2021/03/23 10:58:15;;;;;;;57.47;31.88;;;9.90;88.50;;;;;;5027929;28;20043;-84
2021/03/23 11:00:42;;;;;;;57.13;34.92;;;9.90;88.40;;;;;;5043885;28;20041;-79
2021/03/23 11:03:29;;;;;;;67.93;38.17;;;10.00;88.30;;;;;;5040339;28;20036;-84
2021/03/23 11:05:56;;;;;;;58.88;33.28;;;10.00;88.00;;;;;;5038980;28;20040;-84
2021/03/23 11:08:23;;;;;;;53.70;32.60;;;10.00;87.80;;;;;;5039906;28;20033;-84
2021/03/23 11:10:50;;;;;;;55.05;30.67;;;10.00;87.90;;;;;;5028637;28;20115;-84
2021/03/23 11:13:17;;;;;;;61.13;34.97;;;10.00;87.90;;;;;;5040591;28;20032;-84
2021/03/23 11:15:48;;;;;;;58.67;35.33;;;10.00;87.70;;;;;;5046252;28;20129;-84
2021/03/23 11:18:31;;;;;;;57.88;33.90;;;10.00;87.60;;;;;;5055127;28;20052;-85
2021/03/23 11:21:01;;;;;;;57.97;34.97;;;10.10;87.40;;;;;;5057756;28;20364;-83
2021/03/23 11:23:42;;;;;;;57.28;35.38;;;10.10;87.50;;;;;;5048316;28;20039;-83
2021/03/23 11:26:15;;;;;;;50.60;31.20;;;10.20;87.10;;;;;;5073575;28;20040;-83
2021/03/23 11:28:45;;;;;;;55.92;33.58;;;10.30;87.10;;;;;;5044211;28;20047;-84
2021/03/23 11:31:14;;;;;;;49.30;30.63;;;10.50;87.00;;;;;;5076042;28;20044;-84
2021/03/23 11:33:41;;;;;;;51.83;32.13;;;10.70;86.80;;;;;;5057605;28;20043;-84
2021/03/23 11:36:09;;;;;;;53.25;31.90;;;10.90;86.10;;;;;;5033323;28;20036;-84
2021/03/23 11:38:36;;;;;;;54.45;34.40;;;11.00;85.60;;;;;;5049519;28;20052;-84
2021/03/23 11:41:05;;;;;;;57.42;34.88;;;11.10;85.10;;;;;;5042916;28;20521;-84
2021/03/23 11:43:49;;;;;;;53.95;31.83;;;11.00;84.50;;;;;;5069957;28;20047;-83
2021/03/23 11:46:27;;;;;;;55.35;32.85;;;11.00;84.80;;;;;;5051177;28;20048;-84
2021/03/23 11:49:05;;;;;;;49.58;31.90;;;11.00;85.00;;;;;;5070325;28;20064;-84
2021/03/23 11:51:31;;;;;;;54.05;33.38;;;11.00;84.90;;;;;;5052833;28;20368;-84
2021/03/23 11:53:58;;;;;;;53.55;33.40;;;11.00;84.60;;;;;;5070820;28;20511;-80
2021/03/23 11:56:25;;;;;;;55.85;35.22;;;11.00;84.00;;;;;;5062580;28;20053;-82
2021/03/23 11:58:52;;;;;;;56.35;35.70;;;10.90;84.40;;;;;;5041043;28;20040;-81
2021/03/23 12:01:21;;;;;;;65.53;39.28;;;10.90;83.30;;;;;;5061278;28;20047;-84
2021/03/23 12:03:48;;;;;;;53.80;34.58;;;10.90;82.90;;;;;;5070533;28;20052;-78
2021/03/23 12:06:34;;;;;;;56.88;34.50;;;10.70;82.90;;;;;;5068501;28;20059;-79
2021/03/23 12:09:04;;;;;;;57.78;37.03;;;10.70;83.40;;;;;;5055108;28;20043;-81
2021/03/23 12:11:43;;;;;;;59.22;34.95;;;10.70;83.50;;;;;;5037903;28;20048;-81
2021/03/23 12:14:28;;;;;;;66.00;36.28;;;10.80;83.30;;;;;;5054523;28;20036;-78
2021/03/23 12:17:05;;;;;;;56.20;34.53;;;10.80;83.00;;;;;;5021774;28;20060;-78
2021/03/23 12:20:00;;;;;;;55.45;34.05;;;10.80;83.10;;;;;;5015185;28;20060;-83
2021/03/23 12:22:27;;;;;;;47.90;30.23;;;10.90;83.30;;;;;;5032537;28;20056;-83
2021/03/23 12:24:53;;;;;;;54.47;35.60;;;11.00;83.30;;;;;;4991682;28;20040;-82
2021/03/23 12:27:20;;;;;;;52.25;32.42;;;11.10;82.90;;;;;;5016923;28;20060;-78
2021/03/23 12:29:47;;;;;;;49.45;31.40;;;11.10;82.80;;;;;;5003173;28;20037;-81
2021/03/23 12:32:16;;;;;;;63.25;37.70;;;11.20;82.80;;;;;;5035520;28;20040;-82
2021/03/23 12:34:44;;;;;;;61.13;37.95;;;11.30;82.10;;;;;;5060064;28;20040;-82
2021/03/23 12:37:11;;;;;;;59.65;35.42;;;11.50;81.30;;;;;;5041774;28;20044;-82
2021/03/23 12:39:38;;;;;;;54.67;34.42;;;11.50;81.10;;;;;;5062421;28;20057;-82
2021/03/23 12:42:06;;;;;;;51.33;31.98;;;11.50;81.10;;;;;;5024007;28;20048;-82
2021/03/23 12:44:33;;;;;;;51.95;31.27;;;11.50;81.20;;;;;;5028489;28;20041;-82
2021/03/23 12:47:00;;;;;;;58.10;35.65;;;11.50;81.20;;;;;;5029630;28;20048;-83
2021/03/23 12:49:26;;;;;;;57.58;35.30;;;11.50;81.30;;;;;;5025874;28;20049;-83
2021/03/23 12:51:58;;;;;;;52.78;33.42;;;11.50;81.50;;;;;;5014713;28;20563;-82
2021/03/23 12:54:34;;;;;;;49.03;32.17;;;11.50;81.50;;;;;;5025691;28;20036;-82
2021/03/23 12:57:02;;;;;;;52.55;33.90;;;11.50;81.50;;;;;;5024220;28;20087;-82
2021/03/23 12:59:30;;;;;;;53.50;33.65;;;11.60;81.30;;;;;;5037571;28;20056;-81
2021/03/23 13:01:57;;;;;;;55.55;31.88;;;11.70;81.20;;;;;;5022748;28;20048;-82
2021/03/23 13:04:25;;;;;;;51.17;32.15;;;11.70;81.20;;;;;;5025483;28;20044;-82
2021/03/23 13:06:56;;;;;;;51.38;31.75;;;11.80;81.30;;;;;;5039180;28;20053;-83
2021/03/23 13:09:26;;;;;;;53.45;33.95;;;11.90;81.40;;;;;;5026015;28;20048;-83
2021/03/23 13:11:54;;;;;;;59.78;33.88;;;11.90;82.00;;;;;;5038928;28;20485;-83
2021/03/23 13:14:25;;;;;;;54.03;32.60;;;12.00;81.30;;;;;;5054699;28;20045;-83